createdAt,value
2022-09-15T00:00:22.537Z,0.93
2022-09-15T00:10:26.827Z,1.20
2022-09-15T00:20:31.147Z,0.80
2022-09-15T00:30:34.161Z,0.93
2022-09-15T00:40:46.971Z,1.10
2022-09-15T00:50:56.857Z,1.10
2022-09-15T01:01:03.784Z,1.00
2022-09-15T01:11:07.075Z,1.00
2022-09-15T01:21:21.154Z,0.80
2022-09-15T01:31:29.692Z,1.30
2022-09-15T01:41:38.688Z,1.20
2022-09-15T01:51:44.498Z,1.20
2022-09-15T02:01:51.847Z,0.90
2022-09-15T02:12:02.055Z,1.20
2022-09-15T02:22:10.585Z,0.80
2022-09-15T02:32:17.550Z,0.80
2022-09-15T02:42:27.465Z,0.63
2022-09-15T02:52:31.925Z,0.85
2022-09-15T03:02:35.059Z,0.82
2022-09-15T03:12:44.274Z,0.90
2022-09-15T03:22:47.724Z,0.90
2022-09-15T03:32:52.120Z,1.00
2022-09-15T03:42:55.114Z,1.10
2022-09-15T03:53:00.424Z,1.20
2022-09-15T04:03:03.387Z,1.00
2022-09-15T04:13:07.846Z,1.30
2022-09-15T04:23:11.801Z,1.20
2022-09-15T04:33:16.158Z,1.23
2022-09-15T04:43:19.144Z,1.30
2022-09-15T04:53:23.484Z,1.30
2022-09-15T05:03:27.796Z,1.52
2022-09-15T05:13:32.367Z,1.45
2022-09-15T05:23:36.182Z,1.40
2022-09-15T05:33:40.804Z,1.30
2022-09-15T05:43:44.337Z,1.80
2022-09-15T05:53:48.870Z,3.13
2022-09-15T06:03:52.462Z,1.60
2022-09-15T06:13:57.192Z,1.67
2022-09-15T06:24:01.917Z,1.63
2022-09-15T06:34:06.663Z,1.58
2022-09-15T06:44:10.759Z,1.60
2022-09-15T06:54:16.094Z,2.00
2022-09-15T07:04:19.866Z,1.90
2022-09-15T07:14:24.212Z,1.70
2022-09-15T07:24:27.429Z,1.40
2022-09-15T07:34:32.115Z,1.60
2022-09-15T07:44:35.407Z,1.20
2022-09-15T07:54:39.815Z,1.48
2022-09-15T08:04:42.787Z,1.20
2022-09-15T08:14:47.127Z,1.27
2022-09-15T08:24:50.382Z,1.50
2022-09-15T08:34:54.749Z,1.50
2022-09-15T08:45:03.611Z,1.63
2022-09-15T08:55:14.485Z,1.95
2022-09-15T09:05:34.275Z,1.52
2022-09-15T09:15:49.955Z,2.20
2022-09-15T09:25:53.663Z,1.27
2022-09-15T09:36:01.188Z,1.90
2022-09-15T09:46:05.268Z,1.50
2022-09-15T09:56:19.160Z,1.77
2022-09-15T10:06:23.676Z,2.00
2022-09-15T10:16:28.090Z,1.80
2022-09-15T10:26:33.656Z,1.77
2022-09-15T10:36:38.072Z,1.90
2022-09-15T10:46:53.864Z,2.65
2022-09-15T10:57:03.924Z,2.03
2022-09-15T11:07:16.285Z,2.55
2022-09-15T11:17:36.116Z,2.33
2022-09-15T11:27:45.151Z,2.00
2022-09-15T11:37:52.486Z,2.00
2022-09-15T11:48:00.130Z,2.25
2022-09-15T11:58:22.386Z,2.33
2022-09-15T12:08:32.042Z,2.55
2022-09-15T12:18:44.837Z,2.55
2022-09-15T12:29:02.209Z,2.25
2022-09-15T12:39:27.233Z,2.40
2022-09-15T12:49:33.596Z,2.38
2022-09-15T12:59:37.957Z,2.70
2022-09-15T13:09:46.115Z,2.05
2022-09-15T13:19:53.866Z,2.70
2022-09-15T13:30:03.788Z,2.50
2022-09-15T13:40:41.829Z,2.20
2022-09-15T13:50:51.475Z,2.25
2022-09-15T14:01:02.176Z,2.40
2022-09-15T14:11:08.801Z,2.70
2022-09-15T14:21:19.261Z,2.50
2022-09-15T14:31:30.528Z,2.47
2022-09-15T14:41:35.475Z,2.72
2022-09-15T14:51:38.911Z,2.95
2022-09-15T15:01:49.809Z,2.65
2022-09-15T15:11:56.043Z,2.50
2022-09-15T15:22:15.312Z,3.08
2022-09-15T15:32:21.694Z,3.58
2022-09-15T15:42:28.775Z,2.92
2022-09-15T15:52:31.975Z,10.82
2022-09-15T16:02:36.322Z,14.98
2022-09-15T16:12:39.611Z,2.60
2022-09-15T16:22:44.319Z,2.22
2022-09-15T16:32:47.303Z,2.50
2022-09-15T16:42:51.678Z,2.00
2022-09-15T16:52:55.008Z,2.30
2022-09-15T17:02:59.398Z,2.10
2022-09-15T17:13:02.589Z,2.17
2022-09-15T17:23:18.826Z,2.15
2022-09-15T17:33:22.094Z,4.10
2022-09-15T17:43:28.070Z,2.50
2022-09-15T17:53:31.079Z,3.13
2022-09-15T18:03:38.215Z,4.53
2022-09-15T18:13:41.176Z,3.65
2022-09-15T18:23:45.530Z,3.53
2022-09-15T18:33:48.543Z,3.20
2022-09-15T18:43:53.203Z,2.90
2022-09-15T18:53:57.261Z,2.60
2022-09-15T19:04:02.682Z,1.75
2022-09-15T19:14:05.680Z,1.48
2022-09-15T19:24:10.032Z,1.60
2022-09-15T19:34:13.035Z,1.10
2022-09-15T19:44:17.728Z,1.30
2022-09-15T19:54:20.741Z,1.27
2022-09-15T20:04:25.115Z,1.20
2022-09-15T20:14:28.110Z,1.35
2022-09-15T20:24:32.513Z,1.30
2022-09-15T20:34:35.503Z,1.17
2022-09-15T20:44:39.923Z,1.30
2022-09-15T20:54:43.093Z,1.40
2022-09-15T21:04:47.449Z,1.00
2022-09-15T21:14:50.420Z,1.00
2022-09-15T21:24:54.758Z,0.90
2022-09-15T21:34:57.712Z,1.10
2022-09-15T21:45:02.072Z,1.20
2022-09-15T21:55:05.352Z,1.10
2022-09-15T22:05:10.015Z,1.02
2022-09-15T22:15:13.115Z,1.25
2022-09-15T22:25:21.780Z,1.67
2022-09-15T22:35:25.058Z,1.58
2022-09-15T22:45:29.471Z,1.70
2022-09-15T22:55:32.992Z,1.85
2022-09-15T23:05:37.337Z,1.70
2022-09-15T23:15:40.299Z,1.98
2022-09-15T23:25:44.722Z,1.60
2022-09-15T23:35:48.174Z,1.70
2022-09-15T23:45:53.530Z,1.70
2022-09-15T23:55:56.826Z,2.70
